Head of Island, Louisiana
Current Conditions -  °F | °C
As of 9:35 AM on Friday 19 Dec 2014 (Local Time) from K1L0 Reporting Station
Moderate Rain Moderate Rain  
Wind Chill: 56°   Ceiling: 600
Heat Index: 56°   Visibility: 10mi
Dew Point: 54°   Wind: 7mph
Humidity: 91%   Direction: 60°ENE
Pressure: 30.14"   Gusts: NA
Location:  30.3666°N, 90.584°W
Report Text: K1L0 191535Z AUTO 06006KT 10SM RA BKN006 BKN025 OVC031 14/12 A3014 RMK AO2 P0001 T01350120
Loading
Personal Weather Stations






























Interactive Weather Map New forecast layout! Learn more

10-Day Weather Forecast

Advertisements
Track Severe Weather on mobile